sensor_id;sensor_type;location;lat;lon;timestamp;P1;durP1;ratioP1;P2;durP2;ratioP2
60665;SDS011;59128;44.642;21.188;2023-04-05T00:00:53;8.73;;;5.60;;
60665;SDS011;59128;44.642;21.188;2023-04-05T00:03:19;10.52;;;6.15;;
60665;SDS011;59128;44.642;21.188;2023-04-05T00:05:45;8.35;;;5.78;;
60665;SDS011;59128;44.642;21.188;2023-04-05T00:08:14;7.40;;;5.90;;
60665;SDS011;59128;44.642;21.188;2023-04-05T00:10:47;6.00;;;5.33;;
60665;SDS011;59128;44.642;21.188;2023-04-05T00:13:14;8.63;;;5.67;;
60665;SDS011;59128;44.642;21.188;2023-04-05T00:15:40;7.95;;;5.72;;
60665;SDS011;59128;44.642;21.188;2023-04-05T00:18:06;8.63;;;5.90;;
60665;SDS011;59128;44.642;21.188;2023-04-05T00:20:32;6.68;;;5.43;;
60665;SDS011;59128;44.642;21.188;2023-04-05T00:23:01;7.47;;;5.38;;
60665;SDS011;59128;44.642;21.188;2023-04-05T00:25:30;8.07;;;5.70;;
60665;SDS011;59128;44.642;21.188;2023-04-05T00:27:56;6.28;;;5.65;;
60665;SDS011;59128;44.642;21.188;2023-04-05T00:30:22;6.70;;;5.70;;
60665;SDS011;59128;44.642;21.188;2023-04-05T00:32:49;7.82;;;5.57;;
60665;SDS011;59128;44.642;21.188;2023-04-05T00:35:15;6.03;;;4.83;;
60665;SDS011;59128;44.642;21.188;2023-04-05T00:37:42;5.93;;;5.00;;
60665;SDS011;59128;44.642;21.188;2023-04-05T00:40:08;5.85;;;4.90;;
60665;SDS011;59128;44.642;21.188;2023-04-05T00:42:34;9.07;;;5.88;;
60665;SDS011;59128;44.642;21.188;2023-04-05T00:45:00;5.82;;;4.95;;
60665;SDS011;59128;44.642;21.188;2023-04-05T00:47:27;6.75;;;5.00;;
60665;SDS011;59128;44.642;21.188;2023-04-05T00:49:54;7.00;;;4.80;;
60665;SDS011;59128;44.642;21.188;2023-04-05T00:52:20;7.75;;;5.80;;
60665;SDS011;59128;44.642;21.188;2023-04-05T00:54:47;6.10;;;5.10;;
60665;SDS011;59128;44.642;21.188;2023-04-05T00:57:15;7.53;;;5.40;;
60665;SDS011;59128;44.642;21.188;2023-04-05T00:59:41;6.82;;;5.53;;
60665;SDS011;59128;44.642;21.188;2023-04-05T01:02:09;6.27;;;5.20;;
60665;SDS011;59128;44.642;21.188;2023-04-05T01:04:37;6.82;;;5.43;;
60665;SDS011;59128;44.642;21.188;2023-04-05T01:11:56;7.00;;;5.70;;
60665;SDS011;59128;44.642;21.188;2023-04-05T01:14:23;7.40;;;6.00;;
60665;SDS011;59128;44.642;21.188;2023-04-05T01:16:49;7.32;;;5.60;;
60665;SDS011;59128;44.642;21.188;2023-04-05T01:19:21;7.35;;;5.55;;
60665;SDS011;59128;44.642;21.188;2023-04-05T01:31:50;7.40;;;5.87;;
60665;SDS011;59128;44.642;21.188;2023-04-05T01:34:22;6.80;;;5.03;;
60665;SDS011;59128;44.642;21.188;2023-04-05T01:36:53;7.50;;;5.90;;
60665;SDS011;59128;44.642;21.188;2023-04-05T01:39:19;8.85;;;5.80;;
60665;SDS011;59128;44.642;21.188;2023-04-05T01:41:46;7.35;;;5.32;;
60665;SDS011;59128;44.642;21.188;2023-04-05T01:44:12;7.20;;;5.40;;
60665;SDS011;59128;44.642;21.188;2023-04-05T01:46:38;9.40;;;6.20;;
60665;SDS011;59128;44.642;21.188;2023-04-05T01:49:04;7.90;;;6.27;;
60665;SDS011;59128;44.642;21.188;2023-04-05T01:51:30;6.45;;;5.80;;
60665;SDS011;59128;44.642;21.188;2023-04-05T01:53:56;6.97;;;6.25;;
60665;SDS011;59128;44.642;21.188;2023-04-05T01:56:22;6.53;;;5.93;;
60665;SDS011;59128;44.642;21.188;2023-04-05T01:58:48;6.68;;;5.60;;
60665;SDS011;59128;44.642;21.188;2023-04-05T02:01:15;6.50;;;5.65;;
60665;SDS011;59128;44.642;21.188;2023-04-05T02:03:41;6.22;;;5.63;;
60665;SDS011;59128;44.642;21.188;2023-04-05T02:06:07;7.07;;;5.70;;
60665;SDS011;59128;44.642;21.188;2023-04-05T02:08:33;7.40;;;5.60;;
60665;SDS011;59128;44.642;21.188;2023-04-05T02:10:59;7.65;;;5.80;;
60665;SDS011;59128;44.642;21.188;2023-04-05T02:13:25;7.17;;;5.37;;
60665;SDS011;59128;44.642;21.188;2023-04-05T02:15:51;6.22;;;5.50;;
60665;SDS011;59128;44.642;21.188;2023-04-05T02:18:17;6.22;;;5.53;;
60665;SDS011;59128;44.642;21.188;2023-04-05T02:20:50;6.88;;;5.40;;
60665;SDS011;59128;44.642;21.188;2023-04-05T02:23:19;6.93;;;5.50;;
60665;SDS011;59128;44.642;21.188;2023-04-05T02:25:45;5.93;;;5.13;;
60665;SDS011;59128;44.642;21.188;2023-04-05T02:28:11;6.63;;;5.50;;
60665;SDS011;59128;44.642;21.188;2023-04-05T02:30:37;6.90;;;5.93;;
60665;SDS011;59128;44.642;21.188;2023-04-05T02:33:03;6.82;;;5.88;;
60665;SDS011;59128;44.642;21.188;2023-04-05T02:35:29;7.63;;;5.90;;
60665;SDS011;59128;44.642;21.188;2023-04-05T02:37:55;8.93;;;6.35;;
60665;SDS011;59128;44.642;21.188;2023-04-05T02:40:21;6.57;;;5.85;;
60665;SDS011;59128;44.642;21.188;2023-04-05T02:42:47;8.57;;;6.72;;
60665;SDS011;59128;44.642;21.188;2023-04-05T02:45:13;6.20;;;5.40;;
60665;SDS011;59128;44.642;21.188;2023-04-05T02:47:39;7.15;;;5.50;;
60665;SDS011;59128;44.642;21.188;2023-04-05T02:50:05;6.97;;;6.28;;
60665;SDS011;59128;44.642;21.188;2023-04-05T02:52:31;7.93;;;5.82;;
60665;SDS011;59128;44.642;21.188;2023-04-05T02:54:58;6.32;;;5.72;;
60665;SDS011;59128;44.642;21.188;2023-04-05T02:57:24;8.38;;;6.30;;
60665;SDS011;59128;44.642;21.188;2023-04-05T02:59:50;6.80;;;6.10;;
60665;SDS011;59128;44.642;21.188;2023-04-05T03:02:16;6.20;;;5.60;;
60665;SDS011;59128;44.642;21.188;2023-04-05T03:04:42;6.50;;;5.90;;
60665;SDS011;59128;44.642;21.188;2023-04-05T03:07:08;7.70;;;5.88;;
60665;SDS011;59128;44.642;21.188;2023-04-05T03:09:38;6.03;;;5.43;;
60665;SDS011;59128;44.642;21.188;2023-04-05T03:12:04;6.22;;;5.30;;
60665;SDS011;59128;44.642;21.188;2023-04-05T03:14:30;6.70;;;5.68;;
60665;SDS011;59128;44.642;21.188;2023-04-05T03:16:56;6.90;;;5.82;;
60665;SDS011;59128;44.642;21.188;2023-04-05T03:19:23;7.47;;;6.00;;
60665;SDS011;59128;44.642;21.188;2023-04-05T03:21:50;7.35;;;6.30;;
60665;SDS011;59128;44.642;21.188;2023-04-05T03:24:17;6.85;;;5.93;;
60665;SDS011;59128;44.642;21.188;2023-04-05T03:26:44;6.72;;;5.68;;
60665;SDS011;59128;44.642;21.188;2023-04-05T03:29:10;6.18;;;5.57;;
60665;SDS011;59128;44.642;21.188;2023-04-05T03:31:36;6.68;;;6.00;;
60665;SDS011;59128;44.642;21.188;2023-04-05T03:34:02;6.25;;;5.65;;
60665;SDS011;59128;44.642;21.188;2023-04-05T03:36:28;6.63;;;5.93;;
60665;SDS011;59128;44.642;21.188;2023-04-05T03:39:10;6.67;;;6.00;;
60665;SDS011;59128;44.642;21.188;2023-04-05T03:41:36;6.50;;;5.88;;
60665;SDS011;59128;44.642;21.188;2023-04-05T03:44:02;6.68;;;5.80;;
60665;SDS011;59128;44.642;21.188;2023-04-05T03:46:29;6.88;;;6.18;;
60665;SDS011;59128;44.642;21.188;2023-04-05T03:48:55;6.85;;;6.13;;
60665;SDS011;59128;44.642;21.188;2023-04-05T03:51:22;7.38;;;6.60;;
60665;SDS011;59128;44.642;21.188;2023-04-05T03:53:48;6.90;;;6.20;;
60665;SDS011;59128;44.642;21.188;2023-04-05T03:56:14;6.97;;;6.28;;
60665;SDS011;59128;44.642;21.188;2023-04-05T03:58:40;6.97;;;6.28;;
60665;SDS011;59128;44.642;21.188;2023-04-05T04:01:07;6.80;;;6.18;;
60665;SDS011;59128;44.642;21.188;2023-04-05T04:03:33;6.80;;;6.10;;
60665;SDS011;59128;44.642;21.188;2023-04-05T04:06:01;7.20;;;6.50;;
60665;SDS011;59128;44.642;21.188;2023-04-05T04:08:27;7.20;;;6.50;;
60665;SDS011;59128;44.642;21.188;2023-04-05T04:10:53;7.32;;;6.43;;
60665;SDS011;59128;44.642;21.188;2023-04-05T04:13:19;7.97;;;6.50;;
60665;SDS011;59128;44.642;21.188;2023-04-05T04:15:45;7.43;;;6.68;;
60665;SDS011;59128;44.642;21.188;2023-04-05T04:18:11;6.83;;;6.13;;
60665;SDS011;59128;44.642;21.188;2023-04-05T04:20:37;7.32;;;6.22;;
60665;SDS011;59128;44.642;21.188;2023-04-05T04:23:03;7.28;;;6.32;;
60665;SDS011;59128;44.642;21.188;2023-04-05T04:25:34;7.38;;;6.40;;
60665;SDS011;59128;44.642;21.188;2023-04-05T04:28:00;8.77;;;6.78;;
60665;SDS011;59128;44.642;21.188;2023-04-05T04:30:26;7.93;;;6.70;;
60665;SDS011;59128;44.642;21.188;2023-04-05T04:32:52;7.65;;;6.80;;
60665;SDS011;59128;44.642;21.188;2023-04-05T04:35:28;7.88;;;6.95;;
60665;SDS011;59128;44.642;21.188;2023-04-05T04:37:58;7.80;;;6.80;;
60665;SDS011;59128;44.642;21.188;2023-04-05T04:40:26;9.02;;;7.00;;
60665;SDS011;59128;44.642;21.188;2023-04-05T04:42:54;7.50;;;6.70;;
60665;SDS011;59128;44.642;21.188;2023-04-05T04:45:22;7.45;;;6.75;;
60665;SDS011;59128;44.642;21.188;2023-04-05T04:47:49;8.27;;;6.80;;
60665;SDS011;59128;44.642;21.188;2023-04-05T04:50:17;7.78;;;6.85;;
60665;SDS011;59128;44.642;21.188;2023-04-05T04:52:44;7.18;;;6.47;;
60665;SDS011;59128;44.642;21.188;2023-04-05T04:55:10;8.50;;;6.90;;
60665;SDS011;59128;44.642;21.188;2023-04-05T04:57:38;7.88;;;6.53;;
60665;SDS011;59128;44.642;21.188;2023-04-05T05:00:06;7.78;;;6.93;;
60665;SDS011;59128;44.642;21.188;2023-04-05T05:02:37;7.85;;;6.50;;
60665;SDS011;59128;44.642;21.188;2023-04-05T05:05:03;7.35;;;6.43;;
60665;SDS011;59128;44.642;21.188;2023-04-05T05:07:29;7.78;;;6.97;;
60665;SDS011;59128;44.642;21.188;2023-04-05T05:09:55;7.85;;;7.03;;
60665;SDS011;59128;44.642;21.188;2023-04-05T05:12:21;7.90;;;6.80;;
60665;SDS011;59128;44.642;21.188;2023-04-05T05:14:47;7.93;;;6.75;;
60665;SDS011;59128;44.642;21.188;2023-04-05T05:17:13;7.72;;;6.90;;
60665;SDS011;59128;44.642;21.188;2023-04-05T05:19:40;7.75;;;6.95;;
60665;SDS011;59128;44.642;21.188;2023-04-05T05:22:06;7.37;;;6.67;;
60665;SDS011;59128;44.642;21.188;2023-04-05T05:24:32;8.63;;;7.18;;
60665;SDS011;59128;44.642;21.188;2023-04-05T05:26:58;9.25;;;7.30;;
60665;SDS011;59128;44.642;21.188;2023-04-05T05:29:24;8.68;;;7.10;;
60665;SDS011;59128;44.642;21.188;2023-04-05T05:31:51;9.23;;;7.22;;
60665;SDS011;59128;44.642;21.188;2023-04-05T05:34:17;7.78;;;6.95;;
60665;SDS011;59128;44.642;21.188;2023-04-05T05:36:43;8.40;;;7.50;;
60665;SDS011;59128;44.642;21.188;2023-04-05T05:39:09;8.35;;;7.32;;
60665;SDS011;59128;44.642;21.188;2023-04-05T05:41:35;8.48;;;7.57;;
60665;SDS011;59128;44.642;21.188;2023-04-05T05:44:01;8.93;;;7.38;;
60665;SDS011;59128;44.642;21.188;2023-04-05T05:46:27;9.43;;;7.28;;
60665;SDS011;59128;44.642;21.188;2023-04-05T05:48:53;8.07;;;7.23;;
60665;SDS011;59128;44.642;21.188;2023-04-05T05:51:19;8.57;;;7.15;;
60665;SDS011;59128;44.642;21.188;2023-04-05T05:53:46;10.48;;;7.18;;
60665;SDS011;59128;44.642;21.188;2023-04-05T05:56:12;9.35;;;7.22;;
60665;SDS011;59128;44.642;21.188;2023-04-05T05:58:38;10.05;;;7.20;;
60665;SDS011;59128;44.642;21.188;2023-04-05T06:01:05;8.90;;;6.63;;
60665;SDS011;59128;44.642;21.188;2023-04-05T06:03:31;7.32;;;6.32;;
60665;SDS011;59128;44.642;21.188;2023-04-05T06:05:58;8.80;;;6.80;;
60665;SDS011;59128;44.642;21.188;2023-04-05T06:08:24;8.77;;;6.90;;
60665;SDS011;59128;44.642;21.188;2023-04-05T06:10:51;7.68;;;6.53;;
60665;SDS011;59128;44.642;21.188;2023-04-05T06:13:17;10.48;;;7.20;;
60665;SDS011;59128;44.642;21.188;2023-04-05T06:15:43;8.80;;;7.70;;
60665;SDS011;59128;44.642;21.188;2023-04-05T06:18:10;10.43;;;7.55;;
60665;SDS011;59128;44.642;21.188;2023-04-05T06:20:36;9.65;;;7.78;;
60665;SDS011;59128;44.642;21.188;2023-04-05T06:23:04;8.90;;;7.78;;
60665;SDS011;59128;44.642;21.188;2023-04-05T06:25:30;9.27;;;8.25;;
60665;SDS011;59128;44.642;21.188;2023-04-05T06:27:57;9.27;;;8.00;;
60665;SDS011;59128;44.642;21.188;2023-04-05T06:30:22;9.35;;;7.68;;
60665;SDS011;59128;44.642;21.188;2023-04-05T06:32:48;9.23;;;8.00;;
60665;SDS011;59128;44.642;21.188;2023-04-05T06:35:21;9.48;;;8.43;;
60665;SDS011;59128;44.642;21.188;2023-04-05T06:37:48;9.30;;;7.40;;
60665;SDS011;59128;44.642;21.188;2023-04-05T06:40:14;9.75;;;8.13;;
60665;SDS011;59128;44.642;21.188;2023-04-05T06:42:41;9.52;;;8.35;;
60665;SDS011;59128;44.642;21.188;2023-04-05T06:45:07;10.32;;;8.63;;
60665;SDS011;59128;44.642;21.188;2023-04-05T06:47:34;11.77;;;9.15;;
60665;SDS011;59128;44.642;21.188;2023-04-05T06:50:02;11.18;;;9.68;;
60665;SDS011;59128;44.642;21.188;2023-04-05T06:52:28;11.55;;;8.90;;
60665;SDS011;59128;44.642;21.188;2023-04-05T06:54:54;9.85;;;8.85;;
60665;SDS011;59128;44.642;21.188;2023-04-05T06:57:21;11.13;;;9.43;;
60665;SDS011;59128;44.642;21.188;2023-04-05T06:59:47;10.23;;;8.52;;
60665;SDS011;59128;44.642;21.188;2023-04-05T07:02:13;10.70;;;8.50;;
60665;SDS011;59128;44.642;21.188;2023-04-05T07:04:39;10.65;;;8.35;;
60665;SDS011;59128;44.642;21.188;2023-04-05T07:07:05;12.52;;;9.65;;
60665;SDS011;59128;44.642;21.188;2023-04-05T07:09:31;11.10;;;9.00;;
60665;SDS011;59128;44.642;21.188;2023-04-05T07:11:58;10.57;;;8.85;;
60665;SDS011;59128;44.642;21.188;2023-04-05T07:14:25;11.30;;;8.70;;
60665;SDS011;59128;44.642;21.188;2023-04-05T07:16:52;11.03;;;8.83;;
60665;SDS011;59128;44.642;21.188;2023-04-05T07:19:18;12.40;;;9.38;;
60665;SDS011;59128;44.642;21.188;2023-04-05T07:21:44;11.10;;;8.80;;
60665;SDS011;59128;44.642;21.188;2023-04-05T07:24:11;11.35;;;8.95;;
60665;SDS011;59128;44.642;21.188;2023-04-05T07:26:36;10.90;;;9.07;;
60665;SDS011;59128;44.642;21.188;2023-04-05T07:29:03;10.93;;;8.48;;
60665;SDS011;59128;44.642;21.188;2023-04-05T07:31:31;10.48;;;8.00;;
60665;SDS011;59128;44.642;21.188;2023-04-05T07:34:01;10.23;;;8.60;;
60665;SDS011;59128;44.642;21.188;2023-04-05T07:36:27;10.52;;;8.38;;
60665;SDS011;59128;44.642;21.188;2023-04-05T07:38:55;9.55;;;8.40;;
60665;SDS011;59128;44.642;21.188;2023-04-05T07:41:21;9.90;;;8.25;;
60665;SDS011;59128;44.642;21.188;2023-04-05T07:43:47;9.02;;;8.07;;
60665;SDS011;59128;44.642;21.188;2023-04-05T07:46:14;11.25;;;8.40;;
60665;SDS011;59128;44.642;21.188;2023-04-05T07:48:40;8.90;;;8.00;;
60665;SDS011;59128;44.642;21.188;2023-04-05T07:51:07;11.40;;;8.55;;
60665;SDS011;59128;44.642;21.188;2023-04-05T07:53:34;10.13;;;8.35;;
60665;SDS011;59128;44.642;21.188;2023-04-05T07:56:07;10.20;;;8.80;;
60665;SDS011;59128;44.642;21.188;2023-04-05T07:58:33;10.23;;;8.48;;
60665;SDS011;59128;44.642;21.188;2023-04-05T08:01:00;11.32;;;9.15;;
60665;SDS011;59128;44.642;21.188;2023-04-05T08:03:27;11.07;;;8.45;;
60665;SDS011;59128;44.642;21.188;2023-04-05T08:05:53;11.45;;;9.10;;
60665;SDS011;59128;44.642;21.188;2023-04-05T08:08:19;10.90;;;9.27;;
60665;SDS011;59128;44.642;21.188;2023-04-05T08:10:45;10.73;;;9.18;;
60665;SDS011;59128;44.642;21.188;2023-04-05T08:13:11;11.25;;;9.73;;
60665;SDS011;59128;44.642;21.188;2023-04-05T08:15:38;10.77;;;9.25;;
60665;SDS011;59128;44.642;21.188;2023-04-05T08:18:05;12.43;;;9.88;;
60665;SDS011;59128;44.642;21.188;2023-04-05T08:20:31;12.10;;;9.37;;
60665;SDS011;59128;44.642;21.188;2023-04-05T08:23:02;10.30;;;8.77;;
60665;SDS011;59128;44.642;21.188;2023-04-05T08:25:28;10.05;;;8.65;;
60665;SDS011;59128;44.642;21.188;2023-04-05T08:27:54;11.45;;;9.38;;
60665;SDS011;59128;44.642;21.188;2023-04-05T08:30:20;12.60;;;9.47;;
60665;SDS011;59128;44.642;21.188;2023-04-05T08:32:47;10.70;;;9.20;;
60665;SDS011;59128;44.642;21.188;2023-04-05T08:35:13;11.63;;;10.15;;
60665;SDS011;59128;44.642;21.188;2023-04-05T08:37:40;10.75;;;9.48;;
60665;SDS011;59128;44.642;21.188;2023-04-05T08:40:06;12.15;;;10.05;;
60665;SDS011;59128;44.642;21.188;2023-04-05T08:42:33;12.30;;;10.65;;
60665;SDS011;59128;44.642;21.188;2023-04-05T08:45:02;13.23;;;11.70;;
60665;SDS011;59128;44.642;21.188;2023-04-05T08:47:28;14.07;;;11.77;;
60665;SDS011;59128;44.642;21.188;2023-04-05T08:49:55;14.60;;;11.23;;
60665;SDS011;59128;44.642;21.188;2023-04-05T08:52:21;12.85;;;11.00;;
60665;SDS011;59128;44.642;21.188;2023-04-05T08:54:47;11.82;;;10.55;;
60665;SDS011;59128;44.642;21.188;2023-04-05T08:57:13;13.02;;;11.15;;
60665;SDS011;59128;44.642;21.188;2023-04-05T08:59:39;14.85;;;11.98;;
60665;SDS011;59128;44.642;21.188;2023-04-05T09:02:24;16.40;;;12.68;;
60665;SDS011;59128;44.642;21.188;2023-04-05T09:04:51;17.70;;;13.90;;
60665;SDS011;59128;44.642;21.188;2023-04-05T09:07:17;12.18;;;10.40;;
60665;SDS011;59128;44.642;21.188;2023-04-05T09:09:50;13.18;;;11.00;;
60665;SDS011;59128;44.642;21.188;2023-04-05T09:12:17;13.85;;;11.00;;
60665;SDS011;59128;44.642;21.188;2023-04-05T09:14:45;14.90;;;12.30;;
60665;SDS011;59128;44.642;21.188;2023-04-05T09:17:13;13.27;;;11.38;;
60665;SDS011;59128;44.642;21.188;2023-04-05T09:19:41;13.80;;;11.25;;
60665;SDS011;59128;44.642;21.188;2023-04-05T09:22:08;13.52;;;11.35;;
60665;SDS011;59128;44.642;21.188;2023-04-05T09:27:07;13.07;;;10.35;;
60665;SDS011;59128;44.642;21.188;2023-04-05T09:29:33;12.65;;;10.57;;
60665;SDS011;59128;44.642;21.188;2023-04-05T09:32:00;14.35;;;11.45;;
60665;SDS011;59128;44.642;21.188;2023-04-05T09:34:33;13.07;;;11.00;;
60665;SDS011;59128;44.642;21.188;2023-04-05T09:37:10;12.35;;;10.98;;
60665;SDS011;59128;44.642;21.188;2023-04-05T09:39:37;13.63;;;11.50;;
60665;SDS011;59128;44.642;21.188;2023-04-05T09:47:18;12.38;;;10.85;;
60665;SDS011;59128;44.642;21.188;2023-04-05T09:49:44;12.73;;;11.02;;
60665;SDS011;59128;44.642;21.188;2023-04-05T09:52:20;13.07;;;10.73;;
60665;SDS011;59128;44.642;21.188;2023-04-05T09:54:46;13.80;;;10.70;;
60665;SDS011;59128;44.642;21.188;2023-04-05T09:57:14;13.30;;;10.60;;
60665;SDS011;59128;44.642;21.188;2023-04-05T09:59:41;12.07;;;10.75;;
60665;SDS011;59128;44.642;21.188;2023-04-05T10:02:09;12.95;;;10.77;;
60665;SDS011;59128;44.642;21.188;2023-04-05T10:04:39;12.85;;;11.40;;
60665;SDS011;59128;44.642;21.188;2023-04-05T10:07:07;13.93;;;11.00;;
60665;SDS011;59128;44.642;21.188;2023-04-05T10:09:34;13.98;;;11.45;;
60665;SDS011;59128;44.642;21.188;2023-04-05T10:12:00;13.38;;;11.15;;
60665;SDS011;59128;44.642;21.188;2023-04-05T10:14:27;12.60;;;10.30;;
60665;SDS011;59128;44.642;21.188;2023-04-05T10:17:12;11.77;;;10.43;;
60665;SDS011;59128;44.642;21.188;2023-04-05T10:22:27;13.07;;;10.77;;
60665;SDS011;59128;44.642;21.188;2023-04-05T10:25:04;13.27;;;11.40;;
60665;SDS011;59128;44.642;21.188;2023-04-05T10:27:32;12.70;;;11.30;;
60665;SDS011;59128;44.642;21.188;2023-04-05T10:35:16;12.27;;;10.27;;
60665;SDS011;59128;44.642;21.188;2023-04-05T10:38:03;11.63;;;10.27;;
60665;SDS011;59128;44.642;21.188;2023-04-05T10:40:31;10.77;;;9.23;;
60665;SDS011;59128;44.642;21.188;2023-04-05T10:42:57;11.18;;;9.60;;
60665;SDS011;59128;44.642;21.188;2023-04-05T10:45:24;11.63;;;9.10;;
60665;SDS011;59128;44.642;21.188;2023-04-05T10:48:01;11.45;;;9.73;;
60665;SDS011;59128;44.642;21.188;2023-04-05T10:50:30;11.00;;;9.43;;
60665;SDS011;59128;44.642;21.188;2023-04-05T10:52:57;12.60;;;10.02;;
60665;SDS011;59128;44.642;21.188;2023-04-05T10:55:25;11.20;;;10.00;;
60665;SDS011;59128;44.642;21.188;2023-04-05T10:57:51;11.50;;;10.30;;
60665;SDS011;59128;44.642;21.188;2023-04-05T11:00:18;11.40;;;10.00;;
60665;SDS011;59128;44.642;21.188;2023-04-05T11:02:44;11.80;;;10.13;;
60665;SDS011;59128;44.642;21.188;2023-04-05T11:07:58;11.60;;;10.02;;
60665;SDS011;59128;44.642;21.188;2023-04-05T11:10:24;13.02;;;11.48;;
60665;SDS011;59128;44.642;21.188;2023-04-05T11:20:38;11.60;;;9.90;;
60665;SDS011;59128;44.642;21.188;2023-04-05T11:23:05;11.73;;;9.95;;
60665;SDS011;59128;44.642;21.188;2023-04-05T11:25:31;13.07;;;10.60;;
60665;SDS011;59128;44.642;21.188;2023-04-05T11:28:03;11.85;;;10.23;;
60665;SDS011;59128;44.642;21.188;2023-04-05T11:30:48;11.82;;;10.50;;
60665;SDS011;59128;44.642;21.188;2023-04-05T11:33:37;11.80;;;10.52;;
60665;SDS011;59128;44.642;21.188;2023-04-05T11:36:03;11.85;;;10.45;;
60665;SDS011;59128;44.642;21.188;2023-04-05T11:38:30;11.60;;;10.40;;
60665;SDS011;59128;44.642;21.188;2023-04-05T11:41:12;12.70;;;11.40;;
60665;SDS011;59128;44.642;21.188;2023-04-05T11:43:42;12.38;;;9.65;;
60665;SDS011;59128;44.642;21.188;2023-04-05T11:46:08;11.93;;;10.18;;
60665;SDS011;59128;44.642;21.188;2023-04-05T11:48:34;13.70;;;10.95;;
60665;SDS011;59128;44.642;21.188;2023-04-05T11:51:05;12.60;;;11.30;;
60665;SDS011;59128;44.642;21.188;2023-04-05T11:53:35;12.50;;;10.88;;
60665;SDS011;59128;44.642;21.188;2023-04-05T11:56:08;12.80;;;9.37;;
60665;SDS011;59128;44.642;21.188;2023-04-05T11:58:36;11.27;;;9.98;;
60665;SDS011;59128;44.642;21.188;2023-04-05T12:01:04;10.52;;;9.43;;
60665;SDS011;59128;44.642;21.188;2023-04-05T12:03:31;10.15;;;9.10;;
60665;SDS011;59128;44.642;21.188;2023-04-05T12:05:58;10.60;;;9.50;;
60665;SDS011;59128;44.642;21.188;2023-04-05T12:08:44;10.98;;;9.88;;
60665;SDS011;59128;44.642;21.188;2023-04-05T12:11:26;10.88;;;9.77;;
60665;SDS011;59128;44.642;21.188;2023-04-05T12:13:54;10.90;;;9.10;;
60665;SDS011;59128;44.642;21.188;2023-04-05T12:16:22;11.95;;;9.07;;
60665;SDS011;59128;44.642;21.188;2023-04-05T12:18:52;9.77;;;8.77;;
60665;SDS011;59128;44.642;21.188;2023-04-05T12:21:19;10.30;;;9.20;;
60665;SDS011;59128;44.642;21.188;2023-04-05T12:23:45;10.15;;;9.15;;
60665;SDS011;59128;44.642;21.188;2023-04-05T12:26:11;9.85;;;8.50;;
60665;SDS011;59128;44.642;21.188;2023-04-05T12:28:54;11.70;;;8.85;;
60665;SDS011;59128;44.642;21.188;2023-04-05T12:34:05;10.27;;;9.18;;
60665;SDS011;59128;44.642;21.188;2023-04-05T12:36:31;10.32;;;9.25;;
60665;SDS011;59128;44.642;21.188;2023-04-05T12:38:57;10.50;;;8.60;;
60665;SDS011;59128;44.642;21.188;2023-04-05T12:41:27;10.25;;;9.10;;
60665;SDS011;59128;44.642;21.188;2023-04-05T12:43:53;11.32;;;8.85;;
60665;SDS011;59128;44.642;21.188;2023-04-05T12:46:41;9.80;;;8.43;;
60665;SDS011;59128;44.642;21.188;2023-04-05T12:49:11;11.02;;;8.93;;
60665;SDS011;59128;44.642;21.188;2023-04-05T12:51:43;11.13;;;8.88;;
60665;SDS011;59128;44.642;21.188;2023-04-05T12:54:13;11.02;;;8.90;;
60665;SDS011;59128;44.642;21.188;2023-04-05T12:56:42;9.88;;;8.88;;
60665;SDS011;59128;44.642;21.188;2023-04-05T12:59:08;11.05;;;8.88;;
60665;SDS011;59128;44.642;21.188;2023-04-05T13:01:35;12.38;;;9.07;;
60665;SDS011;59128;44.642;21.188;2023-04-05T13:04:01;10.80;;;9.23;;
60665;SDS011;59128;44.642;21.188;2023-04-05T13:06:29;10.20;;;8.90;;
60665;SDS011;59128;44.642;21.188;2023-04-05T13:08:56;10.65;;;8.65;;
60665;SDS011;59128;44.642;21.188;2023-04-05T13:11:22;9.77;;;8.77;;
60665;SDS011;59128;44.642;21.188;2023-04-05T13:13:48;9.68;;;8.38;;
60665;SDS011;59128;44.642;21.188;2023-04-05T13:16:14;10.73;;;9.63;;
60665;SDS011;59128;44.642;21.188;2023-04-05T13:18:41;10.55;;;9.45;;
60665;SDS011;59128;44.642;21.188;2023-04-05T13:21:07;11.05;;;9.90;;
60665;SDS011;59128;44.642;21.188;2023-04-05T13:23:34;9.95;;;8.93;;
60665;SDS011;59128;44.642;21.188;2023-04-05T13:26:00;13.20;;;10.15;;
60665;SDS011;59128;44.642;21.188;2023-04-05T13:28:26;11.00;;;9.70;;
60665;SDS011;59128;44.642;21.188;2023-04-05T13:30:52;11.07;;;9.90;;
60665;SDS011;59128;44.642;21.188;2023-04-05T13:33:18;12.20;;;10.40;;
60665;SDS011;59128;44.642;21.188;2023-04-05T13:35:44;10.57;;;9.48;;
60665;SDS011;59128;44.642;21.188;2023-04-05T13:38:10;12.32;;;10.23;;
60665;SDS011;59128;44.642;21.188;2023-04-05T13:40:37;12.77;;;10.40;;
60665;SDS011;59128;44.642;21.188;2023-04-05T13:43:03;13.00;;;10.63;;
60665;SDS011;59128;44.642;21.188;2023-04-05T13:45:29;12.95;;;11.00;;
60665;SDS011;59128;44.642;21.188;2023-04-05T13:47:56;12.00;;;10.70;;
60665;SDS011;59128;44.642;21.188;2023-04-05T13:50:22;14.43;;;11.15;;
60665;SDS011;59128;44.642;21.188;2023-04-05T13:52:48;12.40;;;11.10;;
60665;SDS011;59128;44.642;21.188;2023-04-05T13:55:15;12.10;;;10.90;;
60665;SDS011;59128;44.642;21.188;2023-04-05T13:57:41;11.57;;;10.38;;
60665;SDS011;59128;44.642;21.188;2023-04-05T14:00:07;11.67;;;10.47;;
60665;SDS011;59128;44.642;21.188;2023-04-05T14:02:34;12.15;;;10.85;;
60665;SDS011;59128;44.642;21.188;2023-04-05T14:05:00;12.10;;;10.38;;
60665;SDS011;59128;44.642;21.188;2023-04-05T14:07:26;11.60;;;10.40;;
60665;SDS011;59128;44.642;21.188;2023-04-05T14:09:52;11.75;;;10.55;;
60665;SDS011;59128;44.642;21.188;2023-04-05T14:12:18;11.48;;;10.10;;
60665;SDS011;59128;44.642;21.188;2023-04-05T14:14:45;13.35;;;10.98;;
60665;SDS011;59128;44.642;21.188;2023-04-05T14:17:11;11.98;;;10.68;;
60665;SDS011;59128;44.642;21.188;2023-04-05T14:19:40;12.90;;;11.02;;
60665;SDS011;59128;44.642;21.188;2023-04-05T14:22:06;12.25;;;10.90;;
60665;SDS011;59128;44.642;21.188;2023-04-05T14:24:32;13.68;;;11.77;;
60665;SDS011;59128;44.642;21.188;2023-04-05T14:26:59;12.23;;;10.90;;
60665;SDS011;59128;44.642;21.188;2023-04-05T14:29:26;12.85;;;11.48;;
60665;SDS011;59128;44.642;21.188;2023-04-05T14:31:53;13.18;;;11.73;;
60665;SDS011;59128;44.642;21.188;2023-04-05T14:34:19;14.07;;;11.80;;
60665;SDS011;59128;44.642;21.188;2023-04-05T14:36:45;14.88;;;12.43;;
60665;SDS011;59128;44.642;21.188;2023-04-05T14:39:11;13.88;;;12.25;;
60665;SDS011;59128;44.642;21.188;2023-04-05T14:41:37;13.63;;;12.02;;
60665;SDS011;59128;44.642;21.188;2023-04-05T14:44:04;13.75;;;11.77;;
60665;SDS011;59128;44.642;21.188;2023-04-05T14:46:30;12.83;;;11.53;;
60665;SDS011;59128;44.642;21.188;2023-04-05T14:48:56;13.07;;;11.68;;
60665;SDS011;59128;44.642;21.188;2023-04-05T14:51:22;12.90;;;11.60;;
60665;SDS011;59128;44.642;21.188;2023-04-05T14:53:48;14.07;;;12.53;;
60665;SDS011;59128;44.642;21.188;2023-04-05T14:56:15;14.50;;;12.80;;
60665;SDS011;59128;44.642;21.188;2023-04-05T14:58:41;13.85;;;12.45;;
60665;SDS011;59128;44.642;21.188;2023-04-05T15:01:07;13.30;;;11.85;;
60665;SDS011;59128;44.642;21.188;2023-04-05T15:03:34;14.77;;;12.60;;
60665;SDS011;59128;44.642;21.188;2023-04-05T15:06:00;14.18;;;11.70;;
60665;SDS011;59128;44.642;21.188;2023-04-05T15:08:27;14.68;;;12.32;;